sensor_id;sensor_type;location;lat;lon;timestamp;pressure;altitude;pressure_sealevel;temperature;humidity
54872;BME280;43914;57.680;11.982;2022-09-21T00:01:22;101578.92;;;7.51;85.37
54872;BME280;43914;57.680;11.982;2022-09-21T00:03:57;101578.09;;;7.51;85.60
54872;BME280;43914;57.680;11.982;2022-09-21T00:06:21;101585.27;;;7.50;85.51
54872;BME280;43914;57.680;11.982;2022-09-21T00:08:49;101583.86;;;7.46;85.54
54872;BME280;43914;57.680;11.982;2022-09-21T00:11:18;101582.46;;;7.42;85.62
54872;BME280;43914;57.680;11.982;2022-09-21T00:13:45;101583.93;;;7.41;85.66
54872;BME280;43914;57.680;11.982;2022-09-21T00:16:13;101583.73;;;7.38;85.88
54872;BME280;43914;57.680;11.982;2022-09-21T00:18:40;101586.89;;;7.38;85.88
54872;BME280;43914;57.680;11.982;2022-09-21T00:21:08;101585.84;;;7.34;85.91
54872;BME280;43914;57.680;11.982;2022-09-21T00:23:36;101589.16;;;7.32;85.92
54872;BME280;43914;57.680;11.982;2022-09-21T00:26:15;101585.55;;;7.28;86.38
54872;BME280;43914;57.680;11.982;2022-09-21T00:28:43;101588.10;;;7.29;86.42
54872;BME280;43914;57.680;11.982;2022-09-21T00:31:15;101596.60;;;7.29;86.40
54872;BME280;43914;57.680;11.982;2022-09-21T00:33:40;101585.08;;;7.28;86.46
54872;BME280;43914;57.680;11.982;2022-09-21T00:36:12;101584.38;;;7.26;86.65
54872;BME280;43914;57.680;11.982;2022-09-21T00:38:41;101586.35;;;7.24;86.53
54872;BME280;43914;57.680;11.982;2022-09-21T00:41:09;101586.48;;;7.22;87.10
54872;BME280;43914;57.680;11.982;2022-09-21T00:43:49;101567.16;;;7.05;87.06
54872;BME280;43914;57.680;11.982;2022-09-21T00:46:27;101594.08;;;7.17;87.60
54872;BME280;43914;57.680;11.982;2022-09-21T00:48:54;101585.02;;;7.14;87.81
54872;BME280;43914;57.680;11.982;2022-09-21T00:51:22;101585.48;;;7.14;87.83
54872;BME280;43914;57.680;11.982;2022-09-21T00:53:50;101587.69;;;7.14;88.04
54872;BME280;43914;57.680;11.982;2022-09-21T00:56:18;101588.67;;;7.13;88.00
54872;BME280;43914;57.680;11.982;2022-09-21T00:58:46;101586.13;;;7.12;88.02
54872;BME280;43914;57.680;11.982;2022-09-21T01:01:15;101588.16;;;7.14;88.09
54872;BME280;43914;57.680;11.982;2022-09-21T01:03:45;101583.67;;;7.14;88.14
54872;BME280;43914;57.680;11.982;2022-09-21T01:06:12;101580.37;;;7.16;88.07
54872;BME280;43914;57.680;11.982;2022-09-21T01:08:39;101581.41;;;7.19;88.02
54872;BME280;43914;57.680;11.982;2022-09-21T01:11:33;101584.44;;;7.20;87.96
54872;BME280;43914;57.680;11.982;2022-09-21T01:22:47;101585.84;;;7.25;87.74
54872;BME280;43914;57.680;11.982;2022-09-21T01:25:26;101585.84;;;7.25;87.71
54872;BME280;43914;57.680;11.982;2022-09-21T01:30:57;101594.56;;;7.27;87.74
54872;BME280;43914;57.680;11.982;2022-09-21T01:33:31;101596.76;;;7.27;87.73
54872;BME280;43914;57.680;11.982;2022-09-21T01:36:05;101598.45;;;7.28;87.78
54872;BME280;43914;57.680;11.982;2022-09-21T01:38:47;101607.65;;;7.30;87.78
54872;BME280;43914;57.680;11.982;2022-09-21T01:41:16;101601.31;;;7.31;87.82
54872;BME280;43914;57.680;11.982;2022-09-21T01:43:47;101598.98;;;7.32;87.87
54872;BME280;43914;57.680;11.982;2022-09-21T01:46:18;101598.64;;;7.31;87.68
54872;BME280;43914;57.680;11.982;2022-09-21T01:48:49;101596.83;;;7.31;87.65
54872;BME280;43914;57.680;11.982;2022-09-21T01:51:19;101595.14;;;7.30;87.59
54872;BME280;43914;57.680;11.982;2022-09-21T01:53:48;101595.14;;;7.30;87.61
54872;BME280;43914;57.680;11.982;2022-09-21T01:56:32;101594.62;;;7.31;87.73
54872;BME280;43914;57.680;11.982;2022-09-21T01:59:16;101597.81;;;7.30;87.81
54872;BME280;43914;57.680;11.982;2022-09-21T02:01:52;101596.83;;;7.31;87.84
54872;BME280;43914;57.680;11.982;2022-09-21T02:04:20;101591.48;;;7.31;87.83
54872;BME280;43914;57.680;11.982;2022-09-21T02:06:47;101596.48;;;7.30;87.83
54872;BME280;43914;57.680;11.982;2022-09-21T02:09:16;101595.61;;;7.30;88.04
54872;BME280;43914;57.680;11.982;2022-09-21T02:11:43;101592.47;;;7.30;87.83
54872;BME280;43914;57.680;11.982;2022-09-21T02:14:13;101597.30;;;7.31;88.01
54872;BME280;43914;57.680;11.982;2022-09-21T02:31:30;101589.28;;;7.31;88.14
54872;BME280;43914;57.680;11.982;2022-09-21T02:37:28;101593.58;;;7.28;87.54
54872;BME280;43914;57.680;11.982;2022-09-21T02:39:28;101594.91;;;7.28;87.58
54872;BME280;43914;57.680;11.982;2022-09-21T02:42:09;101589.56;;;7.28;87.55
54872;BME280;43914;57.680;11.982;2022-09-21T02:44:56;101593.58;;;7.28;87.31
54872;BME280;43914;57.680;11.982;2022-09-21T02:47:33;101598.23;;;7.26;87.35
54872;BME280;43914;57.680;11.982;2022-09-21T02:50:15;101592.52;;;7.25;87.52
54872;BME280;43914;57.680;11.982;2022-09-21T02:52:45;101598.86;;;7.24;87.34
54872;BME280;43914;57.680;11.982;2022-09-21T02:55:14;101595.13;;;7.20;87.53
54872;BME280;43914;57.680;11.982;2022-09-21T02:57:42;101597.80;;;7.20;87.52
54872;BME280;43914;57.680;11.982;2022-09-21T03:00:10;101592.81;;;7.21;87.52
54872;BME280;43914;57.680;11.982;2022-09-21T03:02:39;101597.80;;;7.20;87.28
54872;BME280;43914;57.680;11.982;2022-09-21T03:05:11;101601.81;;;7.20;87.13
54872;BME280;43914;57.680;11.982;2022-09-21T03:07:37;101602.03;;;7.13;86.64
54872;BME280;43914;57.680;11.982;2022-09-21T03:10:04;101604.29;;;7.08;86.53
54872;BME280;43914;57.680;11.982;2022-09-21T03:12:32;101604.83;;;7.02;86.70
54872;BME280;43914;57.680;11.982;2022-09-21T03:14:59;101606.16;;;7.02;87.04
54872;BME280;43914;57.680;11.982;2022-09-21T03:17:27;101607.14;;;7.01;86.94
54872;BME280;43914;57.680;11.982;2022-09-21T03:19:58;101603.36;;;7.03;87.31
54872;BME280;43914;57.680;11.982;2022-09-21T03:22:26;101609.56;;;7.04;87.43
54872;BME280;43914;57.680;11.982;2022-09-21T03:24:53;101607.25;;;7.05;87.50
54872;BME280;43914;57.680;11.982;2022-09-21T03:27:21;101607.59;;;7.06;87.56
54872;BME280;43914;57.680;11.982;2022-09-21T03:29:48;101607.25;;;7.05;87.33
54872;BME280;43914;57.680;11.982;2022-09-21T03:32:15;101610.05;;;7.03;87.47
54872;BME280;43914;57.680;11.982;2022-09-21T03:34:41;101611.89;;;7.03;87.27
54872;BME280;43914;57.680;11.982;2022-09-21T03:37:09;101616.50;;;7.01;87.31
54872;BME280;43914;57.680;11.982;2022-09-21T03:39:35;101610.55;;;7.03;87.47
54872;BME280;43914;57.680;11.982;2022-09-21T03:42:02;101612.23;;;7.04;87.27
54872;BME280;43914;57.680;11.982;2022-09-21T03:44:32;101610.05;;;7.03;87.35
54872;BME280;43914;57.680;11.982;2022-09-21T03:46:56;101613.42;;;7.05;87.22
54872;BME280;43914;57.680;11.982;2022-09-21T03:49:26;101612.08;;;7.05;87.11
54872;BME280;43914;57.680;11.982;2022-09-21T03:51:54;101609.77;;;7.06;87.03
54872;BME280;43914;57.680;11.982;2022-09-21T03:54:23;101618.13;;;7.07;87.34
54872;BME280;43914;57.680;11.982;2022-09-21T03:56:50;101620.68;;;7.09;87.19
54872;BME280;43914;57.680;11.982;2022-09-21T03:59:16;101614.83;;;7.10;87.26
54872;BME280;43914;57.680;11.982;2022-09-21T04:01:43;101623.07;;;7.12;87.33
54872;BME280;43914;57.680;11.982;2022-09-21T04:04:11;101619.25;;;7.15;87.25
54872;BME280;43914;57.680;11.982;2022-09-21T04:06:37;101618.42;;;7.14;87.12
54872;BME280;43914;57.680;11.982;2022-09-21T04:09:03;101617.56;;;7.14;87.05
54872;BME280;43914;57.680;11.982;2022-09-21T04:11:30;101603.92;;;7.17;87.17
54872;BME280;43914;57.680;11.982;2022-09-21T04:13:57;101606.59;;;7.17;86.81
54872;BME280;43914;57.680;11.982;2022-09-21T04:16:24;101606.59;;;7.17;86.98
54872;BME280;43914;57.680;11.982;2022-09-21T04:18:51;101607.45;;;7.17;86.71
54872;BME280;43914;57.680;11.982;2022-09-21T04:21:18;101619.00;;;7.18;86.39
54872;BME280;43914;57.680;11.982;2022-09-21T04:23:46;101615.95;;;7.17;86.53
54872;BME280;43914;57.680;11.982;2022-09-21T04:26:19;101618.14;;;7.17;86.34
54872;BME280;43914;57.680;11.982;2022-09-21T04:28:50;101621.30;;;7.17;86.17
54872;BME280;43914;57.680;11.982;2022-09-21T04:31:17;101620.75;;;7.13;85.87
54872;BME280;43914;57.680;11.982;2022-09-21T04:33:46;101609.00;;;7.10;85.96
54872;BME280;43914;57.680;11.982;2022-09-21T04:36:17;101611.45;;;7.07;85.81
54872;BME280;43914;57.680;11.982;2022-09-21T04:38:44;101610.81;;;7.10;85.91
54872;BME280;43914;57.680;11.982;2022-09-21T04:41:11;101616.16;;;7.10;85.72
54872;BME280;43914;57.680;11.982;2022-09-21T04:43:43;101615.81;;;7.08;85.61
54872;BME280;43914;57.680;11.982;2022-09-21T04:46:15;101615.05;;;7.12;85.52
54872;BME280;43914;57.680;11.982;2022-09-21T04:48:43;101612.38;;;7.12;85.05
54872;BME280;43914;57.680;11.982;2022-09-21T04:51:10;101619.70;;;7.10;84.71
54872;BME280;43914;57.680;11.982;2022-09-21T04:53:39;101617.50;;;7.10;84.67
54872;BME280;43914;57.680;11.982;2022-09-21T04:56:06;101619.63;;;7.06;84.67
54872;BME280;43914;57.680;11.982;2022-09-21T04:58:33;101618.19;;;7.02;84.68
54872;BME280;43914;57.680;11.982;2022-09-21T05:01:00;101617.36;;;7.01;84.80
54872;BME280;43914;57.680;11.982;2022-09-21T05:03:28;101613.83;;;7.01;84.79
54872;BME280;43914;57.680;11.982;2022-09-21T05:05:57;101618.57;;;7.03;84.94
54872;BME280;43914;57.680;11.982;2022-09-21T05:08:25;101621.79;;;7.06;85.10
54872;BME280;43914;57.680;11.982;2022-09-21T05:11:12;101621.03;;;7.10;84.93
54872;BME280;43914;57.680;11.982;2022-09-21T05:13:46;101623.27;;;7.15;84.98
54872;BME280;43914;57.680;11.982;2022-09-21T05:16:15;101621.80;;;7.16;84.74
54872;BME280;43914;57.680;11.982;2022-09-21T05:18:43;101612.32;;;7.18;84.71
54872;BME280;43914;57.680;11.982;2022-09-21T05:21:13;101617.16;;;7.18;84.63
54872;BME280;43914;57.680;11.982;2022-09-21T05:23:40;101623.72;;;7.20;84.60
54872;BME280;43914;57.680;11.982;2022-09-21T05:26:06;101625.18;;;7.18;84.59
54872;BME280;43914;57.680;11.982;2022-09-21T05:28:32;101629.89;;;7.20;84.71
54872;BME280;43914;57.680;11.982;2022-09-21T05:33:56;101625.94;;;7.15;84.75
54872;BME280;43914;57.680;11.982;2022-09-21T05:39:33;101635.16;;;7.06;85.29
54872;BME280;43914;57.680;11.982;2022-09-21T05:42:00;101632.41;;;7.02;85.51
54872;BME280;43914;57.680;11.982;2022-09-21T05:44:26;101640.20;;;7.00;85.54
54872;BME280;43914;57.680;11.982;2022-09-21T05:47:00;101634.78;;;6.96;85.76
54872;BME280;43914;57.680;11.982;2022-09-21T05:52:55;101645.35;;;6.97;86.16
54872;BME280;43914;57.680;11.982;2022-09-21T06:03:51;101640.22;;;7.10;85.78
54872;BME280;43914;57.680;11.982;2022-09-21T06:06:19;101644.88;;;7.17;85.47
54872;BME280;43914;57.680;11.982;2022-09-21T06:08:46;101649.19;;;7.24;85.24
54872;BME280;43914;57.680;11.982;2022-09-21T06:11:12;101645.37;;;7.27;84.93
54872;BME280;43914;57.680;11.982;2022-09-21T06:13:39;101645.19;;;7.34;84.81
54872;BME280;43914;57.680;11.982;2022-09-21T06:16:06;101642.41;;;7.40;84.55
54872;BME280;43914;57.680;11.982;2022-09-21T06:18:37;101642.20;;;7.47;84.39
54872;BME280;43914;57.680;11.982;2022-09-21T06:21:05;101639.97;;;7.52;84.13
54872;BME280;43914;57.680;11.982;2022-09-21T06:23:31;101552.92;;;7.04;83.89
54872;BME280;43914;57.680;11.982;2022-09-21T06:25:58;101643.95;;;7.62;83.83
54872;BME280;43914;57.680;11.982;2022-09-21T06:28:24;101642.89;;;7.69;83.80
54872;BME280;43914;57.680;11.982;2022-09-21T06:30:52;101641.61;;;7.73;83.73
54872;BME280;43914;57.680;11.982;2022-09-21T06:33:19;101639.64;;;7.75;83.37
54872;BME280;43914;57.680;11.982;2022-09-21T06:35:58;101642.88;;;7.78;83.42
54872;BME280;43914;57.680;11.982;2022-09-21T06:38:26;101641.60;;;7.83;83.64
54872;BME280;43914;57.680;11.982;2022-09-21T06:40:54;101646.38;;;7.89;83.80
54872;BME280;43914;57.680;11.982;2022-09-21T06:43:20;101643.84;;;7.97;83.81
54872;BME280;43914;57.680;11.982;2022-09-21T06:45:54;101639.42;;;8.06;83.82
54872;BME280;43914;57.680;11.982;2022-09-21T06:48:22;101649.28;;;8.15;83.81
54872;BME280;43914;57.680;11.982;2022-09-21T06:50:49;101652.89;;;8.24;83.52
54872;BME280;43914;57.680;11.982;2022-09-21T06:53:16;101654.66;;;8.29;83.46
54872;BME280;43914;57.680;11.982;2022-09-21T06:55:42;101649.70;;;8.34;83.30
54872;BME280;43914;57.680;11.982;2022-09-21T06:58:09;101655.30;;;8.41;83.14
54872;BME280;43914;57.680;11.982;2022-09-21T07:00:35;101579.30;;;8.00;82.80
54872;BME280;43914;57.680;11.982;2022-09-21T07:03:01;101653.81;;;8.53;82.75
54872;BME280;43914;57.680;11.982;2022-09-21T07:05:27;101654.42;;;8.60;82.86
54872;BME280;43914;57.680;11.982;2022-09-21T07:07:57;101651.32;;;8.69;82.77
54872;BME280;43914;57.680;11.982;2022-09-21T07:10:24;101652.27;;;8.78;82.44
54872;BME280;43914;57.680;11.982;2022-09-21T07:12:50;101645.81;;;8.85;82.41
54872;BME280;43914;57.680;11.982;2022-09-21T07:15:17;101648.79;;;8.95;82.37
54872;BME280;43914;57.680;11.982;2022-09-21T07:17:44;101649.55;;;9.06;82.19
54872;BME280;43914;57.680;11.982;2022-09-21T07:20:10;101649.32;;;9.17;82.11
54872;BME280;43914;57.680;11.982;2022-09-21T07:22:36;101649.94;;;9.29;82.12
54872;BME280;43914;57.680;11.982;2022-09-21T07:25:06;101646.19;;;9.40;82.02
54872;BME280;43914;57.680;11.982;2022-09-21T07:27:33;101648.34;;;9.55;82.06
54872;BME280;43914;57.680;11.982;2022-09-21T07:29:59;101649.77;;;9.67;82.17
54872;BME280;43914;57.680;11.982;2022-09-21T07:32:27;101646.48;;;9.77;82.16
54872;BME280;43914;57.680;11.982;2022-09-21T07:34:55;101649.92;;;9.88;82.28
54872;BME280;43914;57.680;11.982;2022-09-21T07:37:23;101646.63;;;9.98;82.45
54872;BME280;43914;57.680;11.982;2022-09-21T07:39:50;101649.55;;;10.09;82.38
54872;BME280;43914;57.680;11.982;2022-09-21T07:42:17;101645.22;;;10.16;82.54
54872;BME280;43914;57.680;11.982;2022-09-21T07:44:46;101647.48;;;10.29;82.50
54872;BME280;43914;57.680;11.982;2022-09-21T07:47:12;101650.72;;;10.37;82.51
54872;BME280;43914;57.680;11.982;2022-09-21T07:49:39;101648.95;;;10.46;82.50
54872;BME280;43914;57.680;11.982;2022-09-21T07:52:06;101660.89;;;10.56;82.36
54872;BME280;43914;57.680;11.982;2022-09-21T07:54:34;101658.41;;;10.62;82.24
54872;BME280;43914;57.680;11.982;2022-09-21T07:57:01;101660.44;;;10.68;82.48
54872;BME280;43914;57.680;11.982;2022-09-21T07:59:46;101661.66;;;10.78;82.79
54872;BME280;43914;57.680;11.982;2022-09-21T08:02:15;101659.84;;;10.87;82.62
54872;BME280;43914;57.680;11.982;2022-09-21T08:04:41;101660.86;;;10.94;82.84
54872;BME280;43914;57.680;11.982;2022-09-21T08:07:08;101661.22;;;11.04;82.93
54872;BME280;43914;57.680;11.982;2022-09-21T08:09:37;101655.88;;;11.12;82.98
54872;BME280;43914;57.680;11.982;2022-09-21T08:12:03;101662.61;;;11.20;83.19
54872;BME280;43914;57.680;11.982;2022-09-21T08:14:29;101658.23;;;11.28;83.24
54872;BME280;43914;57.680;11.982;2022-09-21T08:16:55;101657.75;;;11.36;83.49
54872;BME280;43914;57.680;11.982;2022-09-21T08:19:21;101656.92;;;11.44;83.68
54872;BME280;43914;57.680;11.982;2022-09-21T08:21:50;101658.41;;;11.51;83.91
54872;BME280;43914;57.680;11.982;2022-09-21T08:24:16;101655.41;;;11.62;84.11
54872;BME280;43914;57.680;11.982;2022-09-21T08:26:42;101651.20;;;11.72;84.11
54872;BME280;43914;57.680;11.982;2022-09-21T08:29:08;101645.80;;;11.80;84.32
54872;BME280;43914;57.680;11.982;2022-09-21T08:31:34;101651.16;;;11.89;84.07
54872;BME280;43914;57.680;11.982;2022-09-21T08:34:04;101652.68;;;11.95;84.12
54872;BME280;43914;57.680;11.982;2022-09-21T08:36:34;101650.18;;;12.02;84.06
54872;BME280;43914;57.680;11.982;2022-09-21T08:38:58;101653.34;;;12.10;84.01
54872;BME280;43914;57.680;11.982;2022-09-21T08:46:57;101660.38;;;12.28;83.12
54872;BME280;43914;57.680;11.982;2022-09-21T08:49:24;101658.00;;;12.33;83.26
54872;BME280;43914;57.680;11.982;2022-09-21T08:51:56;101650.75;;;12.37;82.79
54872;BME280;43914;57.680;11.982;2022-09-21T08:57:32;101653.02;;;12.57;82.34
54872;BME280;43914;57.680;11.982;2022-09-21T09:00:00;101653.45;;;12.73;82.16
54872;BME280;43914;57.680;11.982;2022-09-21T09:02:41;101647.81;;;12.87;81.82
54872;BME280;43914;57.680;11.982;2022-09-21T09:05:55;101652.94;;;13.05;81.69
54872;BME280;43914;57.680;11.982;2022-09-21T09:12:11;101658.75;;;13.49;79.80
54872;BME280;43914;57.680;11.982;2022-09-21T09:15:03;101658.64;;;13.61;76.46
54872;BME280;43914;57.680;11.982;2022-09-21T09:21:02;101652.05;;;13.64;74.63
54872;BME280;43914;57.680;11.982;2022-09-21T09:23:45;101664.53;;;13.65;74.04
54872;BME280;43914;57.680;11.982;2022-09-21T09:26:23;101660.97;;;13.64;73.88
54872;BME280;43914;57.680;11.982;2022-09-21T09:31:40;101661.61;;;13.90;72.68
54872;BME280;43914;57.680;11.982;2022-09-21T09:34:29;101657.59;;;14.00;72.38
54872;BME280;43914;57.680;11.982;2022-09-21T09:37:00;101657.37;;;14.06;71.18
54872;BME280;43914;57.680;11.982;2022-09-21T09:39:42;101658.95;;;14.16;71.17
54872;BME280;43914;57.680;11.982;2022-09-21T09:48:00;101657.91;;;14.51;69.31
54872;BME280;43914;57.680;11.982;2022-09-21T09:50:34;101660.87;;;14.56;68.64
54872;BME280;43914;57.680;11.982;2022-09-21T09:53:11;101658.13;;;14.60;68.59
54872;BME280;43914;57.680;11.982;2022-09-21T09:55:45;101660.22;;;14.69;68.33
54872;BME280;43914;57.680;11.982;2022-09-21T09:58:18;101661.66;;;14.76;67.37
54872;BME280;43914;57.680;11.982;2022-09-21T10:00:53;101657.51;;;14.69;65.19
54872;BME280;43914;57.680;11.982;2022-09-21T10:03:24;101660.92;;;14.67;66.14
54872;BME280;43914;57.680;11.982;2022-09-21T10:05:48;101656.88;;;14.63;65.26
54872;BME280;43914;57.680;11.982;2022-09-21T10:08:38;101656.23;;;14.61;66.24
54872;BME280;43914;57.680;11.982;2022-09-21T10:11:07;101658.45;;;14.61;66.37
54872;BME280;43914;57.680;11.982;2022-09-21T10:13:36;101651.03;;;14.59;65.47
54872;BME280;43914;57.680;11.982;2022-09-21T10:16:13;101659.15;;;14.59;66.25
54872;BME280;43914;57.680;11.982;2022-09-21T10:21:25;101657.61;;;14.46;66.50
54872;BME280;43914;57.680;11.982;2022-09-21T10:24:03;101658.41;;;14.35;66.75
54872;BME280;43914;57.680;11.982;2022-09-21T10:26:50;101656.73;;;14.34;67.34
54872;BME280;43914;57.680;11.982;2022-09-21T10:32:01;101657.38;;;14.36;68.36
54872;BME280;43914;57.680;11.982;2022-09-21T10:34:32;101655.55;;;14.33;68.36
54872;BME280;43914;57.680;11.982;2022-09-21T10:37:24;101655.66;;;14.24;68.03
54872;BME280;43914;57.680;11.982;2022-09-21T10:39:54;101655.11;;;14.14;67.52
54872;BME280;43914;57.680;11.982;2022-09-21T10:42:21;101653.32;;;14.06;67.13
54872;BME280;43914;57.680;11.982;2022-09-21T10:45:03;101656.11;;;13.98;67.42
54872;BME280;43914;57.680;11.982;2022-09-21T10:47:44;101656.53;;;13.91;68.00
54872;BME280;43914;57.680;11.982;2022-09-21T10:58:34;101654.17;;;13.88;66.69
54872;BME280;43914;57.680;11.982;2022-09-21T11:01:22;101652.56;;;13.97;67.59
54872;BME280;43914;57.680;11.982;2022-09-21T11:04:01;101659.09;;;14.03;67.59
54872;BME280;43914;57.680;11.982;2022-09-21T11:06:36;101651.09;;;14.10;67.45
54872;BME280;43914;57.680;11.982;2022-09-21T11:11:41;101657.61;;;14.16;68.17
54872;BME280;43914;57.680;11.982;2022-09-21T11:14:44;101660.57;;;14.25;67.44
54872;BME280;43914;57.680;11.982;2022-09-21T11:17:35;101660.24;;;14.24;67.54
54872;BME280;43914;57.680;11.982;2022-09-21T11:20:32;101660.29;;;14.20;66.80
54872;BME280;43914;57.680;11.982;2022-09-21T11:26:16;101653.20;;;14.60;68.12
54872;BME280;43914;57.680;11.982;2022-09-21T11:29:07;101663.89;;;14.87;67.48
54872;BME280;43914;57.680;11.982;2022-09-21T11:45:56;101655.02;;;15.87;62.61
54872;BME280;43914;57.680;11.982;2022-09-21T11:48:58;101658.94;;;15.89;62.31
54872;BME280;43914;57.680;11.982;2022-09-21T12:15:32;101656.94;;;16.04;60.53
54872;BME280;43914;57.680;11.982;2022-09-21T12:18:12;101665.45;;;15.94;59.13
54872;BME280;43914;57.680;11.982;2022-09-21T12:21:02;101660.29;;;16.06;58.46
54872;BME280;43914;57.680;11.982;2022-09-21T12:23:45;101662.20;;;15.95;57.41
54872;BME280;43914;57.680;11.982;2022-09-21T12:26:31;101661.48;;;15.86;56.93
54872;BME280;43914;57.680;11.982;2022-09-21T12:29:11;101654.67;;;15.79;57.23
54872;BME280;43914;57.680;11.982;2022-09-21T12:31:46;101660.85;;;15.73;57.64
54872;BME280;43914;57.680;11.982;2022-09-21T12:34:29;101658.40;;;15.89;57.68
54872;BME280;43914;57.680;11.982;2022-09-21T12:37:02;101645.01;;;16.09;57.41
54872;BME280;43914;57.680;11.982;2022-09-21T12:39:47;101651.70;;;16.13;58.04
54872;BME280;43914;57.680;11.982;2022-09-21T12:45:32;101639.12;;;16.06;59.43
54872;BME280;43914;57.680;11.982;2022-09-21T12:48:31;101648.03;;;16.10;59.93
54872;BME280;43914;57.680;11.982;2022-09-21T12:53:50;101638.44;;;16.32;59.37
54872;BME280;43914;57.680;11.982;2022-09-21T12:59:30;101635.03;;;16.65;58.32
54872;BME280;43914;57.680;11.982;2022-09-21T13:02:39;101632.57;;;16.70;57.83
54872;BME280;43914;57.680;11.982;2022-09-21T13:08:10;101642.63;;;17.08;57.51
54872;BME280;43914;57.680;11.982;2022-09-21T13:13:20;101640.55;;;16.92;56.89
54872;BME280;43914;57.680;11.982;2022-09-21T13:15:51;101641.05;;;17.03;57.35
54872;BME280;43914;57.680;11.982;2022-09-21T13:18:35;101637.20;;;17.21;57.43
54872;BME280;43914;57.680;11.982;2022-09-21T13:21:26;101636.70;;;17.35;56.61
54872;BME280;43914;57.680;11.982;2022-09-21T13:24:05;101636.48;;;17.43;57.16
54872;BME280;43914;57.680;11.982;2022-09-21T13:26:39;101641.72;;;17.58;56.88
54872;BME280;43914;57.680;11.982;2022-09-21T13:34:42;101639.47;;;18.19;55.89
54872;BME280;43914;57.680;11.982;2022-09-21T13:37:27;101643.13;;;18.58;54.03
54872;BME280;43914;57.680;11.982;2022-09-21T13:47:54;101639.28;;;18.13;52.58
54872;BME280;43914;57.680;11.982;2022-09-21T13:50:38;101644.42;;;17.99;52.60
54872;BME280;43914;57.680;11.982;2022-09-21T13:53:17;101650.91;;;17.98;53.03
54872;BME280;43914;57.680;11.982;2022-09-21T13:55:49;101646.31;;;17.78;52.54
54872;BME280;43914;57.680;11.982;2022-09-21T13:58:28;101637.54;;;17.49;53.40
54872;BME280;43914;57.680;11.982;2022-09-21T14:01:02;101633.34;;;17.47;54.03
54872;BME280;43914;57.680;11.982;2022-09-21T14:03:37;101629.81;;;17.33;54.46
54872;BME280;43914;57.680;11.982;2022-09-21T14:06:18;101634.39;;;17.19;53.94
54872;BME280;43914;57.680;11.982;2022-09-21T14:08:58;101626.14;;;17.23;54.14
54872;BME280;43914;57.680;11.982;2022-09-21T14:11:38;101630.23;;;17.50;54.39
54872;BME280;43914;57.680;11.982;2022-09-21T14:14:14;101628.75;;;17.67;54.47
54872;BME280;43914;57.680;11.982;2022-09-21T14:16:53;101616.29;;;17.96;55.06
54872;BME280;43914;57.680;11.982;2022-09-21T14:24:49;101618.85;;;18.50;53.87
54872;BME280;43914;57.680;11.982;2022-09-21T14:35:39;101608.47;;;17.16;54.82
54872;BME280;43914;57.680;11.982;2022-09-21T14:41:17;101603.00;;;16.65;56.50
54872;BME280;43914;57.680;11.982;2022-09-21T14:43:53;101601.45;;;16.42;57.17
54872;BME280;43914;57.680;11.982;2022-09-21T14:47:34;101594.03;;;16.15;58.31
54872;BME280;43914;57.680;11.982;2022-09-21T14:55:21;101593.27;;;15.54;59.96
54872;BME280;43914;57.680;11.982;2022-09-21T15:00:49;101601.00;;;15.18;61.63
54872;BME280;43914;57.680;11.982;2022-09-21T15:06:35;101597.52;;;14.91;62.53
54872;BME280;43914;57.680;11.982;2022-09-21T15:09:44;101592.91;;;14.81;63.81
54872;BME280;43914;57.680;11.982;2022-09-21T15:15:58;101601.37;;;14.56;64.65
54872;BME280;43914;57.680;11.982;2022-09-21T15:18:27;101596.37;;;14.49;65.53
54872;BME280;43914;57.680;11.982;2022-09-21T15:21:00;101596.16;;;14.39;65.76
54872;BME280;43914;57.680;11.982;2022-09-21T15:23:33;101591.51;;;14.33;65.91
54872;BME280;43914;57.680;11.982;2022-09-21T15:26:09;101590.33;;;14.32;66.12
54872;BME280;43914;57.680;11.982;2022-09-21T15:28:47;101587.83;;;14.30;66.56
54872;BME280;43914;57.680;11.982;2022-09-21T15:31:16;101588.71;;;14.26;66.98
54872;BME280;43914;57.680;11.982;2022-09-21T15:33:44;101581.19;;;14.22;67.40
54872;BME280;43914;57.680;11.982;2022-09-21T15:36:20;101580.38;;;14.17;67.90
54872;BME280;43914;57.680;11.982;2022-09-21T15:38:50;101586.49;;;14.15;67.98
54872;BME280;43914;57.680;11.982;2022-09-21T15:41:37;101581.58;;;14.14;67.96
54872;BME280;43914;57.680;11.982;2022-09-21T15:44:24;101584.98;;;14.12;68.14
54872;BME280;43914;57.680;11.982;2022-09-21T15:46:54;101585.37;;;14.09;68.41
54872;BME280;43914;57.680;11.982;2022-09-21T15:49:27;101586.07;;;14.07;68.50
54872;BME280;43914;57.680;11.982;2022-09-21T15:52:07;101583.69;;;14.08;68.49
54872;BME280;43914;57.680;11.982;2022-09-21T15:55:00;101583.52;;;14.10;68.24
54872;BME280;43914;57.680;11.982;2022-09-21T15:57:30;101588.07;;;14.09;68.36
54872;BME280;43914;57.680;11.982;2022-09-21T16:00:03;101586.39;;;14.08;68.26
54872;BME280;43914;57.680;11.982;2022-09-21T16:02:37;101585.74;;;14.06;68.54
54872;BME280;43914;57.680;11.982;2022-09-21T16:05:06;101580.02;;;14.05;68.53
54872;BME280;43914;57.680;11.982;2022-09-21T16:07:39;101580.39;;;14.02;68.65
54872;BME280;43914;57.680;11.982;2022-09-21T16:11:18;101584.77;;;14.03;68.64
54872;BME280;43914;57.680;11.982;2022-09-21T16:13:19;101591.05;;;13.99;68.57
54872;BME280;43914;57.680;11.982;2022-09-21T16:16:10;101595.63;;;13.99;68.61
54872;BME280;43914;57.680;11.982;2022-09-21T16:21:20;101597.08;;;13.91;68.47
54872;BME280;43914;57.680;11.982;2022-09-21T16:23:54;101594.77;;;13.83;68.55
54872;BME280;43914;57.680;11.982;2022-09-21T16:26:33;101597.52;;;13.79;68.68